ENZV/SVG METAR and TAF weather

Enter ICAO airport designator
Station Type Date Time Source
ENZV METAR 2022/07/03 14:50 UTC NOAA

ENZV 031450Z 26010KT 9999 FEW016 SCT024 17/12 Q1014 NOSIG


Station Type Date Time Source
ENZV Decoded METAR 2022/07/03 14:50 UTC NOAA

Stavanger / Sola, Norway (ENZV) 58-53N 005-38E 9M
Jul 03, 2022 - 10:50 AM EDT / 2022.07.03 1450 UTC
Wind: from the W (260 degrees) at 12 MPH (10 KT):0
Visibility: greater than 7 mile(s):0
Sky conditions: partly cloudy
Temperature: 62 F (17 C)
Dew Point: 53 F (12 C)
Relative Humidity: 72%
Pressure (altimeter): 29.94 in. Hg (1014 hPa)
ob: ENZV 031450Z 26010KT 9999 FEW016 SCT024 17/12 Q1014 NOSIG
cycle: 15

Station Type Date Time Source
ENZV TAF 2022/07/03 12:57 UTC NOAA

TAF ENZV 031100Z 0312/0412 25008KT 9999 SCT015 BKN050
TEMPO 0312/0314 4000 SHRA BKN012CB
BECMG 0400/0402 18010KT
TEMPO 0402/0412 SHRA BKN012CB
TEMPO 0409/0412 25009KT

Example: see airport list